sensor_id;sensor_type;location;lat;lon;timestamp;pressure;altitude;pressure_sealevel;temperature
40199;BMP280;25906;43.536;26.068;2023-04-03T00:01:17;98238.84;;;8.91
40199;BMP280;25906;43.536;26.068;2023-04-03T00:04:04;98233.78;;;9.09
40199;BMP280;25906;43.536;26.068;2023-04-03T00:06:50;98229.81;;;9.04
40199;BMP280;25906;43.536;26.068;2023-04-03T00:09:35;98233.25;;;8.89
40199;BMP280;25906;43.536;26.068;2023-04-03T00:12:20;98228.53;;;8.96
40199;BMP280;25906;43.536;26.068;2023-04-03T00:15:06;98224.44;;;9.08
40199;BMP280;25906;43.536;26.068;2023-04-03T00:17:52;98233.91;;;9.18
40199;BMP280;25906;43.536;26.068;2023-04-03T00:20:37;98229.94;;;9.13
40199;BMP280;25906;43.536;26.068;2023-04-03T00:23:22;98228.50;;;9.09
40199;BMP280;25906;43.536;26.068;2023-04-03T00:26:08;98230.13;;;9.19
40199;BMP280;25906;43.536;26.068;2023-04-03T00:28:54;98225.88;;;8.96
40199;BMP280;25906;43.536;26.068;2023-04-03T00:31:39;98221.69;;;8.99
40199;BMP280;25906;43.536;26.068;2023-04-03T00:34:25;98220.81;;;9.02
40199;BMP280;25906;43.536;26.068;2023-04-03T00:37:10;98223.56;;;9.11
40199;BMP280;25906;43.536;26.068;2023-04-03T00:39:56;98228.38;;;9.16
40199;BMP280;25906;43.536;26.068;2023-04-03T00:42:43;98228.44;;;9.12
40199;BMP280;25906;43.536;26.068;2023-04-03T00:45:33;98229.72;;;9.08
40199;BMP280;25906;43.536;26.068;2023-04-03T00:48:22;98233.38;;;8.98
40199;BMP280;25906;43.536;26.068;2023-04-03T00:51:13;98224.69;;;8.85
40199;BMP280;25906;43.536;26.068;2023-04-03T00:54:03;98218.00;;;8.80
40199;BMP280;25906;43.536;26.068;2023-04-03T00:56:51;98221.84;;;8.79
40199;BMP280;25906;43.536;26.068;2023-04-03T00:59:43;98214.66;;;8.80
40199;BMP280;25906;43.536;26.068;2023-04-03T01:02:29;98218.16;;;9.02
40199;BMP280;25906;43.536;26.068;2023-04-03T01:05:16;98216.78;;;8.85
40199;BMP280;25906;43.536;26.068;2023-04-03T01:08:02;98221.66;;;8.70
40199;BMP280;25906;43.536;26.068;2023-04-03T01:10:48;98202.31;;;8.77
40199;BMP280;25906;43.536;26.068;2023-04-03T01:13:34;98208.63;;;8.79
40199;BMP280;25906;43.536;26.068;2023-04-03T01:16:20;98205.66;;;8.77
40199;BMP280;25906;43.536;26.068;2023-04-03T01:19:10;98209.22;;;8.70
40199;BMP280;25906;43.536;26.068;2023-04-03T01:22:19;98205.91;;;8.83
40199;BMP280;25906;43.536;26.068;2023-04-03T01:25:05;98206.72;;;8.67
40199;BMP280;25906;43.536;26.068;2023-04-03T01:27:50;98202.50;;;8.69
40199;BMP280;25906;43.536;26.068;2023-04-03T01:33:37;98205.16;;;8.53
40199;BMP280;25906;43.536;26.068;2023-04-03T01:36:29;98202.94;;;8.68
40199;BMP280;25906;43.536;26.068;2023-04-03T01:39:15;98212.59;;;8.58
40199;BMP280;25906;43.536;26.068;2023-04-03T01:42:00;98210.16;;;8.64
40199;BMP280;25906;43.536;26.068;2023-04-03T01:44:46;98218.59;;;8.88
40199;BMP280;25906;43.536;26.068;2023-04-03T01:47:31;98215.59;;;8.86
40199;BMP280;25906;43.536;26.068;2023-04-03T01:50:17;98217.59;;;8.82
40199;BMP280;25906;43.536;26.068;2023-04-03T01:53:02;98211.41;;;8.88
40199;BMP280;25906;43.536;26.068;2023-04-03T01:55:48;98218.25;;;8.86
40199;BMP280;25906;43.536;26.068;2023-04-03T01:58:33;98217.22;;;8.96
40199;BMP280;25906;43.536;26.068;2023-04-03T02:01:19;98226.59;;;8.84
40199;BMP280;25906;43.536;26.068;2023-04-03T02:04:05;98222.78;;;8.85
40199;BMP280;25906;43.536;26.068;2023-04-03T02:06:50;98232.97;;;8.70
40199;BMP280;25906;43.536;26.068;2023-04-03T02:09:36;98228.72;;;8.60
40199;BMP280;25906;43.536;26.068;2023-04-03T02:12:21;98228.53;;;8.22
40199;BMP280;25906;43.536;26.068;2023-04-03T02:15:07;98225.31;;;8.31
40199;BMP280;25906;43.536;26.068;2023-04-03T02:17:52;98231.75;;;8.30
40199;BMP280;25906;43.536;26.068;2023-04-03T02:20:38;98233.56;;;8.33
40199;BMP280;25906;43.536;26.068;2023-04-03T02:23:23;98233.81;;;8.22
40199;BMP280;25906;43.536;26.068;2023-04-03T02:26:11;98231.94;;;8.23
40199;BMP280;25906;43.536;26.068;2023-04-03T02:28:57;98240.38;;;8.30
40199;BMP280;25906;43.536;26.068;2023-04-03T02:31:42;98244.63;;;8.28
40199;BMP280;25906;43.536;26.068;2023-04-03T02:34:27;98242.28;;;8.30
40199;BMP280;25906;43.536;26.068;2023-04-03T02:37:13;98242.47;;;8.39
40199;BMP280;25906;43.536;26.068;2023-04-03T02:39:58;98245.00;;;8.59
40199;BMP280;25906;43.536;26.068;2023-04-03T02:42:44;98247.34;;;8.69
40199;BMP280;25906;43.536;26.068;2023-04-03T02:45:30;98239.41;;;8.69
40199;BMP280;25906;43.536;26.068;2023-04-03T02:48:15;98259.06;;;8.68
40199;BMP280;25906;43.536;26.068;2023-04-03T02:51:02;98254.59;;;8.65
40199;BMP280;25906;43.536;26.068;2023-04-03T02:53:47;98255.78;;;8.48
40199;BMP280;25906;43.536;26.068;2023-04-03T02:56:33;98248.03;;;8.57
40199;BMP280;25906;43.536;26.068;2023-04-03T02:59:18;98253.84;;;8.65
40199;BMP280;25906;43.536;26.068;2023-04-03T03:02:03;98243.72;;;8.63
40199;BMP280;25906;43.536;26.068;2023-04-03T03:04:49;98248.38;;;8.59
40199;BMP280;25906;43.536;26.068;2023-04-03T03:07:34;98243.66;;;8.51
40199;BMP280;25906;43.536;26.068;2023-04-03T03:10:20;98246.31;;;8.51
40199;BMP280;25906;43.536;26.068;2023-04-03T03:13:05;98245.66;;;8.47
40199;BMP280;25906;43.536;26.068;2023-04-03T03:15:51;98244.25;;;8.58
40199;BMP280;25906;43.536;26.068;2023-04-03T03:18:36;98253.91;;;8.32
40199;BMP280;25906;43.536;26.068;2023-04-03T03:21:21;98244.16;;;8.46
40199;BMP280;25906;43.536;26.068;2023-04-03T03:24:07;98245.56;;;8.50
40199;BMP280;25906;43.536;26.068;2023-04-03T03:26:52;98248.88;;;8.38
40199;BMP280;25906;43.536;26.068;2023-04-03T03:29:38;98241.22;;;8.44
40199;BMP280;25906;43.536;26.068;2023-04-03T03:32:23;98246.34;;;8.35
40199;BMP280;25906;43.536;26.068;2023-04-03T03:35:08;98239.66;;;8.30
40199;BMP280;25906;43.536;26.068;2023-04-03T03:37:54;98243.53;;;8.42
40199;BMP280;25906;43.536;26.068;2023-04-03T03:40:40;98249.94;;;8.57
40199;BMP280;25906;43.536;26.068;2023-04-03T03:43:25;98261.25;;;8.70
40199;BMP280;25906;43.536;26.068;2023-04-03T03:46:10;98256.97;;;8.76
40199;BMP280;25906;43.536;26.068;2023-04-03T03:48:56;98256.72;;;8.70
40199;BMP280;25906;43.536;26.068;2023-04-03T03:51:41;98256.91;;;8.63
40199;BMP280;25906;43.536;26.068;2023-04-03T03:54:27;98255.53;;;8.59
40199;BMP280;25906;43.536;26.068;2023-04-03T03:57:12;98249.72;;;8.64
40199;BMP280;25906;43.536;26.068;2023-04-03T03:59:57;98249.31;;;8.65
40199;BMP280;25906;43.536;26.068;2023-04-03T04:02:43;98254.66;;;8.62
40199;BMP280;25906;43.536;26.068;2023-04-03T04:05:28;98249.81;;;8.60
40199;BMP280;25906;43.536;26.068;2023-04-03T04:08:14;98253.06;;;8.52
40199;BMP280;25906;43.536;26.068;2023-04-03T04:10:59;98249.03;;;8.47
40199;BMP280;25906;43.536;26.068;2023-04-03T04:13:45;98249.03;;;8.47
40199;BMP280;25906;43.536;26.068;2023-04-03T04:16:31;98240.66;;;8.36
40199;BMP280;25906;43.536;26.068;2023-04-03T04:19:16;98239.66;;;8.30
40199;BMP280;25906;43.536;26.068;2023-04-03T04:22:01;98233.56;;;8.33
40199;BMP280;25906;43.536;26.068;2023-04-03T04:24:47;98235.31;;;8.23
40199;BMP280;25906;43.536;26.068;2023-04-03T04:27:32;98239.25;;;8.31
40199;BMP280;25906;43.536;26.068;2023-04-03T04:30:18;98238.69;;;8.24
40199;BMP280;25906;43.536;26.068;2023-04-03T04:33:03;98243.31;;;8.04
40199;BMP280;25906;43.536;26.068;2023-04-03T04:35:49;98249.41;;;8.17
40199;BMP280;25906;43.536;26.068;2023-04-03T04:38:34;98246.63;;;8.08
40199;BMP280;25906;43.536;26.068;2023-04-03T04:41:21;98246.78;;;8.17
40199;BMP280;25906;43.536;26.068;2023-04-03T04:44:09;98249.47;;;8.29
40199;BMP280;25906;43.536;26.068;2023-04-03T04:46:55;98250.94;;;8.47
40199;BMP280;25906;43.536;26.068;2023-04-03T04:49:40;98250.72;;;8.54
40199;BMP280;25906;43.536;26.068;2023-04-03T04:52:26;98255.69;;;8.81
40199;BMP280;25906;43.536;26.068;2023-04-03T04:55:11;98257.09;;;8.85
40199;BMP280;25906;43.536;26.068;2023-04-03T04:57:57;98263.44;;;8.88
40199;BMP280;25906;43.536;26.068;2023-04-03T05:00:42;98264.28;;;8.85
40199;BMP280;25906;43.536;26.068;2023-04-03T05:03:28;98270.94;;;8.89
40199;BMP280;25906;43.536;26.068;2023-04-03T05:06:13;98276.28;;;8.86
40199;BMP280;25906;43.536;26.068;2023-04-03T05:08:59;98278.03;;;8.92
40199;BMP280;25906;43.536;26.068;2023-04-03T05:11:44;98279.94;;;9.04
40199;BMP280;25906;43.536;26.068;2023-04-03T05:14:30;98285.91;;;8.80
40199;BMP280;25906;43.536;26.068;2023-04-03T05:17:15;98283.53;;;8.98
40199;BMP280;25906;43.536;26.068;2023-04-03T05:20:01;98291.59;;;9.07
40199;BMP280;25906;43.536;26.068;2023-04-03T05:22:47;98294.03;;;9.14
40199;BMP280;25906;43.536;26.068;2023-04-03T05:25:32;98290.75;;;9.23
40199;BMP280;25906;43.536;26.068;2023-04-03T05:28:18;98296.47;;;9.34
40199;BMP280;25906;43.536;26.068;2023-04-03T05:31:03;98306.13;;;9.40
40199;BMP280;25906;43.536;26.068;2023-04-03T05:33:49;98306.66;;;9.48
40199;BMP280;25906;43.536;26.068;2023-04-03T05:36:34;98309.19;;;9.64
40199;BMP280;25906;43.536;26.068;2023-04-03T05:39:20;98311.31;;;9.69
40199;BMP280;25906;43.536;26.068;2023-04-03T05:42:06;98317.94;;;9.74
40199;BMP280;25906;43.536;26.068;2023-04-03T05:44:52;98310.13;;;9.57
40199;BMP280;25906;43.536;26.068;2023-04-03T05:47:37;98308.09;;;9.49
40199;BMP280;25906;43.536;26.068;2023-04-03T05:50:23;98311.50;;;9.49
40199;BMP280;25906;43.536;26.068;2023-04-03T05:53:35;98312.56;;;10.02
40199;BMP280;25906;43.536;26.068;2023-04-03T05:56:24;98311.44;;;10.38
40199;BMP280;25906;43.536;26.068;2023-04-03T05:59:10;98322.06;;;10.59
40199;BMP280;25906;43.536;26.068;2023-04-03T06:01:56;98318.72;;;10.81
40199;BMP280;25906;43.536;26.068;2023-04-03T06:04:41;98318.50;;;10.97
40199;BMP280;25906;43.536;26.068;2023-04-03T06:07:27;98324.69;;;10.94
40199;BMP280;25906;43.536;26.068;2023-04-03T06:10:13;98316.88;;;10.90
40199;BMP280;25906;43.536;26.068;2023-04-03T06:12:59;98320.25;;;10.91
40199;BMP280;25906;43.536;26.068;2023-04-03T06:15:44;98326.22;;;11.04
40199;BMP280;25906;43.536;26.068;2023-04-03T06:18:29;98333.56;;;11.00
40199;BMP280;25906;43.536;26.068;2023-04-03T06:21:15;98346.59;;;11.16
40199;BMP280;25906;43.536;26.068;2023-04-03T06:24:00;98344.69;;;11.17
40199;BMP280;25906;43.536;26.068;2023-04-03T06:26:46;98342.03;;;11.38
40199;BMP280;25906;43.536;26.068;2023-04-03T06:29:31;98340.31;;;11.53
40199;BMP280;25906;43.536;26.068;2023-04-03T06:32:17;98344.28;;;11.89
40199;BMP280;25906;43.536;26.068;2023-04-03T06:35:02;98345.38;;;12.00
40199;BMP280;25906;43.536;26.068;2023-04-03T06:37:48;98352.88;;;11.62
40199;BMP280;25906;43.536;26.068;2023-04-03T06:40:33;98350.06;;;12.05
40199;BMP280;25906;43.536;26.068;2023-04-03T06:43:19;98351.44;;;12.19
40199;BMP280;25906;43.536;26.068;2023-04-03T06:46:04;98360.44;;;12.31
40199;BMP280;25906;43.536;26.068;2023-04-03T06:48:50;98360.91;;;12.29
40199;BMP280;25906;43.536;26.068;2023-04-03T06:51:36;98363.56;;;12.47
40199;BMP280;25906;43.536;26.068;2023-04-03T06:54:22;98364.88;;;12.52
40199;BMP280;25906;43.536;26.068;2023-04-03T06:57:07;98364.75;;;12.74
40199;BMP280;25906;43.536;26.068;2023-04-03T06:59:53;98359.16;;;12.81
40199;BMP280;25906;43.536;26.068;2023-04-03T07:02:39;98360.03;;;12.87
40199;BMP280;25906;43.536;26.068;2023-04-03T07:05:24;98368.84;;;13.02
40199;BMP280;25906;43.536;26.068;2023-04-03T07:08:10;98369.28;;;13.10
40199;BMP280;25906;43.536;26.068;2023-04-03T07:10:55;98376.22;;;13.07
40199;BMP280;25906;43.536;26.068;2023-04-03T07:13:41;98378.75;;;13.11
40199;BMP280;25906;43.536;26.068;2023-04-03T07:16:26;98377.13;;;13.13
40199;BMP280;25906;43.536;26.068;2023-04-03T07:19:12;98373.84;;;13.18
40199;BMP280;25906;43.536;26.068;2023-04-03T07:21:58;98382.19;;;13.44
40199;BMP280;25906;43.536;26.068;2023-04-03T07:24:43;98384.69;;;13.47
40199;BMP280;25906;43.536;26.068;2023-04-03T07:27:29;98374.53;;;13.46
40199;BMP280;25906;43.536;26.068;2023-04-03T07:30:15;98373.28;;;13.56
40199;BMP280;25906;43.536;26.068;2023-04-03T07:33:00;98376.72;;;13.47
40199;BMP280;25906;43.536;26.068;2023-04-03T07:35:45;98371.22;;;13.60
40199;BMP280;25906;43.536;26.068;2023-04-03T07:38:31;98376.06;;;13.94
40199;BMP280;25906;43.536;26.068;2023-04-03T07:41:18;98374.78;;;13.90
40199;BMP280;25906;43.536;26.068;2023-04-03T07:44:05;98372.97;;;13.96
40199;BMP280;25906;43.536;26.068;2023-04-03T07:46:50;98385.50;;;14.04
40199;BMP280;25906;43.536;26.068;2023-04-03T07:49:36;98390.31;;;14.15
40199;BMP280;25906;43.536;26.068;2023-04-03T07:52:24;98395.66;;;14.30
40199;BMP280;25906;43.536;26.068;2023-04-03T07:55:10;98410.94;;;14.29
40199;BMP280;25906;43.536;26.068;2023-04-03T07:57:56;98410.28;;;14.34
40199;BMP280;25906;43.536;26.068;2023-04-03T08:00:41;98404.75;;;14.23
40199;BMP280;25906;43.536;26.068;2023-04-03T08:03:27;98405.84;;;14.40
40199;BMP280;25906;43.536;26.068;2023-04-03T08:06:12;98402.09;;;14.23
40199;BMP280;25906;43.536;26.068;2023-04-03T08:09:00;98397.09;;;14.16
40199;BMP280;25906;43.536;26.068;2023-04-03T08:11:45;98401.63;;;14.25
40199;BMP280;25906;43.536;26.068;2023-04-03T08:14:34;98404.13;;;14.28
40199;BMP280;25906;43.536;26.068;2023-04-03T08:17:19;98411.53;;;14.48
40199;BMP280;25906;43.536;26.068;2023-04-03T08:20:06;98404.75;;;14.62
40199;BMP280;25906;43.536;26.068;2023-04-03T08:22:52;98398.69;;;14.61
40199;BMP280;25906;43.536;26.068;2023-04-03T08:25:42;98394.63;;;14.89
40199;BMP280;25906;43.536;26.068;2023-04-03T08:28:27;98400.41;;;14.73
40199;BMP280;25906;43.536;26.068;2023-04-03T08:31:16;98399.22;;;14.89
40199;BMP280;25906;43.536;26.068;2023-04-03T08:34:03;98396.38;;;14.92
40199;BMP280;25906;43.536;26.068;2023-04-03T08:36:48;98391.53;;;15.20
40199;BMP280;25906;43.536;26.068;2023-04-03T08:39:34;98392.69;;;15.34
40199;BMP280;25906;43.536;26.068;2023-04-03T08:42:41;98384.97;;;15.36
40199;BMP280;25906;43.536;26.068;2023-04-03T08:45:47;98382.66;;;15.43
40199;BMP280;25906;43.536;26.068;2023-04-03T08:48:39;98390.38;;;15.41
40199;BMP280;25906;43.536;26.068;2023-04-03T08:51:26;98379.34;;;15.83
40199;BMP280;25906;43.536;26.068;2023-04-03T08:54:23;98378.94;;;16.10
40199;BMP280;25906;43.536;26.068;2023-04-03T08:57:11;98379.78;;;16.42
40199;BMP280;25906;43.536;26.068;2023-04-03T09:00:04;98378.31;;;16.61
40199;BMP280;25906;43.536;26.068;2023-04-03T09:02:52;98372.09;;;16.50
40199;BMP280;25906;43.536;26.068;2023-04-03T09:05:43;98360.03;;;16.54
40199;BMP280;25906;43.536;26.068;2023-04-03T09:15:36;98353.44;;;16.81
40199;BMP280;25906;43.536;26.068;2023-04-03T09:18:25;98349.09;;;16.32
40199;BMP280;25906;43.536;26.068;2023-04-03T09:21:21;98349.00;;;16.01
40199;BMP280;25906;43.536;26.068;2023-04-03T09:24:12;98349.63;;;16.36
40199;BMP280;25906;43.536;26.068;2023-04-03T09:27:01;98346.66;;;16.80
40199;BMP280;25906;43.536;26.068;2023-04-03T09:29:53;98339.88;;;16.33
40199;BMP280;25906;43.536;26.068;2023-04-03T09:32:38;98347.19;;;16.90
40199;BMP280;25906;43.536;26.068;2023-04-03T09:35:32;98342.81;;;17.18
40199;BMP280;25906;43.536;26.068;2023-04-03T09:38:21;98343.59;;;16.93
40199;BMP280;25906;43.536;26.068;2023-04-03T09:41:14;98352.34;;;16.93
40199;BMP280;25906;43.536;26.068;2023-04-03T09:44:01;98342.19;;;17.03
40199;BMP280;25906;43.536;26.068;2023-04-03T09:46:46;98338.56;;;17.43
40199;BMP280;25906;43.536;26.068;2023-04-03T09:49:32;98341.00;;;17.04
40199;BMP280;25906;43.536;26.068;2023-04-03T09:52:19;98340.34;;;17.14
40199;BMP280;25906;43.536;26.068;2023-04-03T09:55:07;98350.63;;;17.69
40199;BMP280;25906;43.536;26.068;2023-04-03T09:57:54;98338.53;;;17.80
40199;BMP280;25906;43.536;26.068;2023-04-03T10:00:41;98333.53;;;17.56
40199;BMP280;25906;43.536;26.068;2023-04-03T10:03:35;98330.50;;;17.32
40199;BMP280;25906;43.536;26.068;2023-04-03T10:06:24;98333.91;;;17.80
40199;BMP280;25906;43.536;26.068;2023-04-03T10:12:12;98338.25;;;17.77
40199;BMP280;25906;43.536;26.068;2023-04-03T10:15:00;98346.00;;;17.22
40199;BMP280;25906;43.536;26.068;2023-04-03T10:20:41;98346.91;;;17.50
40199;BMP280;25906;43.536;26.068;2023-04-03T10:23:44;98337.19;;;17.58
40199;BMP280;25906;43.536;26.068;2023-04-03T10:29:49;98329.94;;;17.64
40199;BMP280;25906;43.536;26.068;2023-04-03T10:32:42;98332.16;;;17.71
40199;BMP280;25906;43.536;26.068;2023-04-03T10:47:47;98314.66;;;17.28
40199;BMP280;25906;43.536;26.068;2023-04-03T10:50:50;98312.16;;;17.61
40199;BMP280;25906;43.536;26.068;2023-04-03T10:53:44;98310.91;;;17.51
40199;BMP280;25906;43.536;26.068;2023-04-03T10:56:40;98313.97;;;17.33
40199;BMP280;25906;43.536;26.068;2023-04-03T10:59:39;98305.75;;;17.42
40199;BMP280;25906;43.536;26.068;2023-04-03T11:02:37;98302.31;;;17.90
40199;BMP280;25906;43.536;26.068;2023-04-03T11:05:34;98301.81;;;17.97
40199;BMP280;25906;43.536;26.068;2023-04-03T11:08:57;98293.28;;;17.93
40199;BMP280;25906;43.536;26.068;2023-04-03T11:11:43;98291.66;;;18.23
40199;BMP280;25906;43.536;26.068;2023-04-03T11:14:34;98283.47;;;17.67
40199;BMP280;25906;43.536;26.068;2023-04-03T11:21:11;98272.31;;;17.21
40199;BMP280;25906;43.536;26.068;2023-04-03T11:23:59;98268.31;;;17.05
40199;BMP280;25906;43.536;26.068;2023-04-03T11:26:44;98264.06;;;17.25
40199;BMP280;25906;43.536;26.068;2023-04-03T11:29:38;98258.94;;;17.21
40199;BMP280;25906;43.536;26.068;2023-04-03T11:33:09;98246.91;;;17.42
40199;BMP280;25906;43.536;26.068;2023-04-03T11:35:51;98254.56;;;17.18
40199;BMP280;25906;43.536;26.068;2023-04-03T11:38:43;98242.59;;;17.61
40199;BMP280;25906;43.536;26.068;2023-04-03T11:41:31;98245.97;;;17.08
40199;BMP280;25906;43.536;26.068;2023-04-03T11:44:31;98241.59;;;17.05
40199;BMP280;25906;43.536;26.068;2023-04-03T11:47:43;98244.78;;;17.57
40199;BMP280;25906;43.536;26.068;2023-04-03T11:50:39;98245.13;;;16.86
40199;BMP280;25906;43.536;26.068;2023-04-03T11:59:22;98228.00;;;17.09
40199;BMP280;25906;43.536;26.068;2023-04-03T12:02:36;98223.38;;;16.67
40199;BMP280;25906;43.536;26.068;2023-04-03T12:05:28;98230.75;;;16.83
40199;BMP280;25906;43.536;26.068;2023-04-03T12:11:26;98222.13;;;16.99
40199;BMP280;25906;43.536;26.068;2023-04-03T12:14:16;98218.06;;;17.15
40199;BMP280;25906;43.536;26.068;2023-04-03T12:17:02;98222.97;;;17.22
40199;BMP280;25906;43.536;26.068;2023-04-03T12:19:47;98224.28;;;17.43
40199;BMP280;25906;43.536;26.068;2023-04-03T12:22:33;98219.94;;;16.98
40199;BMP280;25906;43.536;26.068;2023-04-03T12:25:47;98212.72;;;16.73
40199;BMP280;25906;43.536;26.068;2023-04-03T12:28:39;98207.03;;;16.59
40199;BMP280;25906;43.536;26.068;2023-04-03T12:31:36;98209.13;;;16.44
40199;BMP280;25906;43.536;26.068;2023-04-03T12:44:17;98215.41;;;16.41
40199;BMP280;25906;43.536;26.068;2023-04-03T12:47:42;98218.19;;;16.27
40199;BMP280;25906;43.536;26.068;2023-04-03T12:50:30;98227.41;;;16.26
40199;BMP280;25906;43.536;26.068;2023-04-03T12:53:25;98222.31;;;16.02
40199;BMP280;25906;43.536;26.068;2023-04-03T12:56:26;98225.00;;;16.02
40199;BMP280;25906;43.536;26.068;2023-04-03T12:59:25;98220.47;;;16.08
40199;BMP280;25906;43.536;26.068;2023-04-03T13:02:31;98218.59;;;15.94
40199;BMP280;25906;43.536;26.068;2023-04-03T13:05:19;98227.56;;;15.91
40199;BMP280;25906;43.536;26.068;2023-04-03T13:08:10;98213.50;;;15.90
40199;BMP280;25906;43.536;26.068;2023-04-03T13:11:10;98210.78;;;15.85
40199;BMP280;25906;43.536;26.068;2023-04-03T13:14:02;98206.38;;;15.82
40199;BMP280;25906;43.536;26.068;2023-04-03T13:17:05;98214.09;;;15.80
40199;BMP280;25906;43.536;26.068;2023-04-03T13:19:51;98202.97;;;15.81
40199;BMP280;25906;43.536;26.068;2023-04-03T13:22:43;98208.09;;;15.85
40199;BMP280;25906;43.536;26.068;2023-04-03T13:25:33;98207.22;;;15.93
40199;BMP280;25906;43.536;26.068;2023-04-03T13:28:21;98210.09;;;15.90
40199;BMP280;25906;43.536;26.068;2023-04-03T13:34:07;98200.94;;;15.96
40199;BMP280;25906;43.536;26.068;2023-04-03T13:36:58;98200.47;;;15.98
40199;BMP280;25906;43.536;26.068;2023-04-03T13:39:44;98197.81;;;15.98
40199;BMP280;25906;43.536;26.068;2023-04-03T13:42:33;98197.25;;;15.94
40199;BMP280;25906;43.536;26.068;2023-04-03T13:45:24;98198.72;;;15.95
40199;BMP280;25906;43.536;26.068;2023-04-03T13:48:22;98195.00;;;15.87
40199;BMP280;25906;43.536;26.068;2023-04-03T13:53:59;98197.06;;;15.97
40199;BMP280;25906;43.536;26.068;2023-04-03T13:56:45;98189.50;;;15.96
40199;BMP280;25906;43.536;26.068;2023-04-03T13:59:33;98194.50;;;16.08
40199;BMP280;25906;43.536;26.068;2023-04-03T14:02:29;98187.53;;;16.17
40199;BMP280;25906;43.536;26.068;2023-04-03T14:05:15;98190.88;;;16.11
40199;BMP280;25906;43.536;26.068;2023-04-03T14:08:03;98198.09;;;16.05
40199;BMP280;25906;43.536;26.068;2023-04-03T14:10:49;98199.75;;;15.97
40199;BMP280;25906;43.536;26.068;2023-04-03T14:13:36;98198.66;;;15.89
40199;BMP280;25906;43.536;26.068;2023-04-03T14:16:24;98197.81;;;15.78
40199;BMP280;25906;43.536;26.068;2023-04-03T14:19:27;98193.63;;;15.71
40199;BMP280;25906;43.536;26.068;2023-04-03T14:22:17;98194.03;;;15.64
40199;BMP280;25906;43.536;26.068;2023-04-03T14:25:03;98192.81;;;15.59
40199;BMP280;25906;43.536;26.068;2023-04-03T14:27:50;98193.19;;;15.52
40199;BMP280;25906;43.536;26.068;2023-04-03T14:30:36;98195.19;;;15.57
40199;BMP280;25906;43.536;26.068;2023-04-03T14:33:22;98193.44;;;15.54
40199;BMP280;25906;43.536;26.068;2023-04-03T14:36:27;98194.25;;;15.40
40199;BMP280;25906;43.536;26.068;2023-04-03T14:39:18;98190.69;;;15.43
40199;BMP280;25906;43.536;26.068;2023-04-03T14:42:03;98199.31;;;15.38
40199;BMP280;25906;43.536;26.068;2023-04-03T14:44:50;98191.31;;;15.38
40199;BMP280;25906;43.536;26.068;2023-04-03T14:47:40;98192.72;;;15.34
40199;BMP280;25906;43.536;26.068;2023-04-03T14:50:27;98197.66;;;15.21
40199;BMP280;25906;43.536;26.068;2023-04-03T14:53:13;98190.63;;;15.23
40199;BMP280;25906;43.536;26.068;2023-04-03T14:55:59;98191.25;;;15.13
40199;BMP280;25906;43.536;26.068;2023-04-03T14:58:45;98194.50;;;15.22
40199;BMP280;25906;43.536;26.068;2023-04-03T15:01:34;98192.19;;;15.10
40199;BMP280;25906;43.536;26.068;2023-04-03T15:04:20;98190.69;;;15.08
40199;BMP280;25906;43.536;26.068;2023-04-03T15:07:07;98190.41;;;15.06
40199;BMP280;25906;43.536;26.068;2023-04-03T15:09:53;98187.97;;;15.03
40199;BMP280;25906;43.536;26.068;2023-04-03T15:12:42;98185.69;;;14.96
40199;BMP280;25906;43.536;26.068;2023-04-03T15:15:28;98185.81;;;14.87
40199;BMP280;25906;43.536;26.068;2023-04-03T15:18:21;98188.06;;;14.94
40199;BMP280;25906;43.536;26.068;2023-04-03T15:21:06;98185.34;;;14.88
40199;BMP280;25906;43.536;26.068;2023-04-03T15:23:52;98196.19;;;14.85
40199;BMP280;25906;43.536;26.068;2023-04-03T15:26:37;98185.66;;;14.76
40199;BMP280;25906;43.536;26.068;2023-04-03T15:29:24;98190.53;;;14.63
40199;BMP280;25906;43.536;26.068;2023-04-03T15:32:10;98186.75;;;14.54
40199;BMP280;25906;43.536;26.068;2023-04-03T15:34:55;98193.81;;;14.43
40199;BMP280;25906;43.536;26.068;2023-04-03T15:37:41;98180.00;;;14.39
40199;BMP280;25906;43.536;26.068;2023-04-03T15:40:26;98190.25;;;14.31
40199;BMP280;25906;43.536;26.068;2023-04-03T15:43:13;98188.22;;;14.26
40199;BMP280;25906;43.536;26.068;2023-04-03T15:45:59;98186.28;;;14.12
40199;BMP280;25906;43.536;26.068;2023-04-03T15:48:45;98184.28;;;14.07
40199;BMP280;25906;43.536;26.068;2023-04-03T15:51:31;98198.41;;;13.98
40199;BMP280;25906;43.536;26.068;2023-04-03T15:54:17;98198.31;;;13.93
40199;BMP280;25906;43.536;26.068;2023-04-03T15:57:02;98198.31;;;13.93
40199;BMP280;25906;43.536;26.068;2023-04-03T15:59:47;98198.81;;;13.82
40199;BMP280;25906;43.536;26.068;2023-04-03T16:02:33;98203.59;;;13.78
40199;BMP280;25906;43.536;26.068;2023-04-03T16:05:19;98205.75;;;13.65
40199;BMP280;25906;43.536;26.068;2023-04-03T16:08:06;98208.19;;;13.54
40199;BMP280;25906;43.536;26.068;2023-04-03T16:10:52;98212.06;;;13.44
40199;BMP280;25906;43.536;26.068;2023-04-03T16:13:38;98211.41;;;13.34
40199;BMP280;25906;43.536;26.068;2023-04-03T16:16:24;98221.44;;;13.30
40199;BMP280;25906;43.536;26.068;2023-04-03T16:19:12;98217.81;;;13.19
40199;BMP280;25906;43.536;26.068;2023-04-03T16:21:58;98220.47;;;13.19
40199;BMP280;25906;43.536;26.068;2023-04-03T16:24:43;98221.84;;;13.14
40199;BMP280;25906;43.536;26.068;2023-04-03T16:27:29;98224.38;;;12.99
40199;BMP280;25906;43.536;26.068;2023-04-03T16:30:16;98218.63;;;13.01
40199;BMP280;25906;43.536;26.068;2023-04-03T16:33:01;98215.31;;;12.82
40199;BMP280;25906;43.536;26.068;2023-04-03T16:35:48;98206.75;;;12.78
40199;BMP280;25906;43.536;26.068;2023-04-03T16:38:35;98200.91;;;12.65
40199;BMP280;25906;43.536;26.068;2023-04-03T16:41:20;98200.63;;;12.63
40199;BMP280;25906;43.536;26.068;2023-04-03T16:44:06;98188.09;;;12.45
40199;BMP280;25906;43.536;26.068;2023-04-03T16:46:52;98188.09;;;12.54
40199;BMP280;25906;43.536;26.068;2023-04-03T16:49:38;98181.19;;;12.39
40199;BMP280;25906;43.536;26.068;2023-04-03T16:52:23;98177.47;;;12.45
40199;BMP280;25906;43.536;26.068;2023-04-03T16:55:09;98170.38;;;12.51
40199;BMP280;25906;43.536;26.068;2023-04-03T16:57:54;98178.97;;;12.37
40199;BMP280;25906;43.536;26.068;2023-04-03T17:00:40;98177.97;;;12.26